sensor_id;sensor_type;location;lat;lon;timestamp;temperature;humidity
42141;DHT22;27809;51.864;5.646;2022-12-07T00:01:31;3.10;99.90
42141;DHT22;27809;51.864;5.646;2022-12-07T00:03:58;3.30;99.90
42141;DHT22;27809;51.864;5.646;2022-12-07T00:06:33;3.20;99.90
42141;DHT22;27809;51.864;5.646;2022-12-07T00:09:00;3.10;99.90
42141;DHT22;27809;51.864;5.646;2022-12-07T00:11:26;3.00;99.90
42141;DHT22;27809;51.864;5.646;2022-12-07T00:13:59;3.20;99.90
42141;DHT22;27809;51.864;5.646;2022-12-07T00:16:30;3.40;99.90
42141;DHT22;27809;51.864;5.646;2022-12-07T00:18:56;3.30;99.90
42141;DHT22;27809;51.864;5.646;2022-12-07T00:21:24;3.40;99.90
42141;DHT22;27809;51.864;5.646;2022-12-07T00:23:51;3.30;99.90
42141;DHT22;27809;51.864;5.646;2022-12-07T00:28:49;3.30;99.90
42141;DHT22;27809;51.864;5.646;2022-12-07T00:31:16;3.40;99.90
42141;DHT22;27809;51.864;5.646;2022-12-07T00:33:42;3.30;99.90
42141;DHT22;27809;51.864;5.646;2022-12-07T00:36:10;3.50;99.90
42141;DHT22;27809;51.864;5.646;2022-12-07T00:38:37;3.20;99.90
42141;DHT22;27809;51.864;5.646;2022-12-07T00:41:05;3.20;99.90
42141;DHT22;27809;51.864;5.646;2022-12-07T00:43:32;3.20;99.90
42141;DHT22;27809;51.864;5.646;2022-12-07T00:45:57;3.00;99.90
42141;DHT22;27809;51.864;5.646;2022-12-07T00:48:23;2.90;99.90
42141;DHT22;27809;51.864;5.646;2022-12-07T00:50:50;3.00;99.90
42141;DHT22;27809;51.864;5.646;2022-12-07T00:53:16;2.90;99.90
42141;DHT22;27809;51.864;5.646;2022-12-07T00:55:42;2.90;99.90
42141;DHT22;27809;51.864;5.646;2022-12-07T00:58:08;2.70;99.90
42141;DHT22;27809;51.864;5.646;2022-12-07T01:00:35;2.70;99.90
42141;DHT22;27809;51.864;5.646;2022-12-07T01:03:01;2.70;99.90
42141;DHT22;27809;51.864;5.646;2022-12-07T01:05:27;2.70;99.90
42141;DHT22;27809;51.864;5.646;2022-12-07T01:07:52;2.60;99.90
42141;DHT22;27809;51.864;5.646;2022-12-07T01:10:18;2.80;99.90
42141;DHT22;27809;51.864;5.646;2022-12-07T01:12:44;2.60;99.90
42141;DHT22;27809;51.864;5.646;2022-12-07T01:15:09;2.70;99.90
42141;DHT22;27809;51.864;5.646;2022-12-07T01:17:35;2.80;99.90
42141;DHT22;27809;51.864;5.646;2022-12-07T01:20:01;2.50;99.90
42141;DHT22;27809;51.864;5.646;2022-12-07T01:22:27;2.50;99.90
42141;DHT22;27809;51.864;5.646;2022-12-07T01:24:52;2.50;99.90
42141;DHT22;27809;51.864;5.646;2022-12-07T01:27:18;2.50;99.90
42141;DHT22;27809;51.864;5.646;2022-12-07T01:29:43;2.60;99.90
42141;DHT22;27809;51.864;5.646;2022-12-07T01:32:09;2.60;99.90
42141;DHT22;27809;51.864;5.646;2022-12-07T01:34:35;2.40;99.90
42141;DHT22;27809;51.864;5.646;2022-12-07T01:37:01;2.40;99.90
42141;DHT22;27809;51.864;5.646;2022-12-07T01:39:26;2.30;99.90
42141;DHT22;27809;51.864;5.646;2022-12-07T01:41:52;2.40;99.90
42141;DHT22;27809;51.864;5.646;2022-12-07T01:44:26;2.40;99.90
42141;DHT22;27809;51.864;5.646;2022-12-07T01:46:54;2.40;99.90
42141;DHT22;27809;51.864;5.646;2022-12-07T01:49:29;2.50;99.90
42141;DHT22;27809;51.864;5.646;2022-12-07T01:54:39;2.30;99.90
42141;DHT22;27809;51.864;5.646;2022-12-07T01:57:06;2.30;99.90
42141;DHT22;27809;51.864;5.646;2022-12-07T01:59:33;2.50;99.90
42141;DHT22;27809;51.864;5.646;2022-12-07T02:02:02;2.30;99.90
42141;DHT22;27809;51.864;5.646;2022-12-07T02:04:29;2.50;99.90
42141;DHT22;27809;51.864;5.646;2022-12-07T02:06:55;2.30;99.90
42141;DHT22;27809;51.864;5.646;2022-12-07T02:09:23;2.30;99.90
42141;DHT22;27809;51.864;5.646;2022-12-07T02:11:49;2.20;99.90
42141;DHT22;27809;51.864;5.646;2022-12-07T02:14:15;2.40;99.90
42141;DHT22;27809;51.864;5.646;2022-12-07T02:19:23;2.40;99.90
42141;DHT22;27809;51.864;5.646;2022-12-07T02:24:55;2.30;99.90
42141;DHT22;27809;51.864;5.646;2022-12-07T02:27:38;2.00;99.90
42141;DHT22;27809;51.864;5.646;2022-12-07T02:30:10;2.10;99.90
42141;DHT22;27809;51.864;5.646;2022-12-07T02:32:46;2.30;99.90
42141;DHT22;27809;51.864;5.646;2022-12-07T02:35:23;2.20;99.90
42141;DHT22;27809;51.864;5.646;2022-12-07T02:40:50;2.20;99.90
42141;DHT22;27809;51.864;5.646;2022-12-07T02:43:22;2.10;99.90
42141;DHT22;27809;51.864;5.646;2022-12-07T02:45:50;2.10;99.90
42141;DHT22;27809;51.864;5.646;2022-12-07T02:48:18;2.10;99.90
42141;DHT22;27809;51.864;5.646;2022-12-07T02:50:48;2.20;99.90
42141;DHT22;27809;51.864;5.646;2022-12-07T02:53:38;2.10;99.90
42141;DHT22;27809;51.864;5.646;2022-12-07T03:01:27;2.10;99.90
42141;DHT22;27809;51.864;5.646;2022-12-07T03:04:13;2.30;99.90
42141;DHT22;27809;51.864;5.646;2022-12-07T03:06:49;2.50;99.90
42141;DHT22;27809;51.864;5.646;2022-12-07T03:09:45;2.50;99.90
42141;DHT22;27809;51.864;5.646;2022-12-07T03:12:13;2.50;99.90
42141;DHT22;27809;51.864;5.646;2022-12-07T03:14:49;2.70;99.90
42141;DHT22;27809;51.864;5.646;2022-12-07T03:17:24;2.70;99.90
42141;DHT22;27809;51.864;5.646;2022-12-07T03:19:55;2.70;99.90
42141;DHT22;27809;51.864;5.646;2022-12-07T03:22:23;2.70;99.90
42141;DHT22;27809;51.864;5.646;2022-12-07T03:24:53;2.70;99.90
42141;DHT22;27809;51.864;5.646;2022-12-07T03:27:24;2.70;99.90
42141;DHT22;27809;51.864;5.646;2022-12-07T03:29:59;2.90;99.90
42141;DHT22;27809;51.864;5.646;2022-12-07T03:32:45;2.90;99.90
42141;DHT22;27809;51.864;5.646;2022-12-07T03:38:33;2.90;99.90
42141;DHT22;27809;51.864;5.646;2022-12-07T03:41:01;3.00;99.90
42141;DHT22;27809;51.864;5.646;2022-12-07T03:43:30;3.00;99.90
42141;DHT22;27809;51.864;5.646;2022-12-07T03:54:48;3.00;99.90
42141;DHT22;27809;51.864;5.646;2022-12-07T03:57:15;3.00;99.90
42141;DHT22;27809;51.864;5.646;2022-12-07T03:59:41;3.10;99.90
42141;DHT22;27809;51.864;5.646;2022-12-07T04:02:11;3.20;99.90
42141;DHT22;27809;51.864;5.646;2022-12-07T04:04:37;3.20;99.90
42141;DHT22;27809;51.864;5.646;2022-12-07T04:07:02;3.30;99.90
42141;DHT22;27809;51.864;5.646;2022-12-07T04:09:28;3.40;99.90
42141;DHT22;27809;51.864;5.646;2022-12-07T04:11:54;3.50;99.90
42141;DHT22;27809;51.864;5.646;2022-12-07T04:14:19;3.40;99.90
42141;DHT22;27809;51.864;5.646;2022-12-07T04:16:53;3.30;99.90
42141;DHT22;27809;51.864;5.646;2022-12-07T04:19:24;3.30;99.90
42141;DHT22;27809;51.864;5.646;2022-12-07T04:21:50;3.20;99.90
42141;DHT22;27809;51.864;5.646;2022-12-07T04:24:16;3.10;99.90
42141;DHT22;27809;51.864;5.646;2022-12-07T04:26:42;3.10;99.90
42141;DHT22;27809;51.864;5.646;2022-12-07T04:29:09;3.10;99.90
42141;DHT22;27809;51.864;5.646;2022-12-07T04:31:35;3.00;99.90
42141;DHT22;27809;51.864;5.646;2022-12-07T04:34:01;3.00;99.90
42141;DHT22;27809;51.864;5.646;2022-12-07T04:36:26;3.10;99.90
42141;DHT22;27809;51.864;5.646;2022-12-07T04:38:54;3.10;99.90
42141;DHT22;27809;51.864;5.646;2022-12-07T04:41:20;3.00;99.90
42141;DHT22;27809;51.864;5.646;2022-12-07T04:43:55;2.70;99.90
42141;DHT22;27809;51.864;5.646;2022-12-07T04:46:22;2.80;99.90
42141;DHT22;27809;51.864;5.646;2022-12-07T04:48:48;2.80;99.90
42141;DHT22;27809;51.864;5.646;2022-12-07T04:51:16;3.00;99.90
42141;DHT22;27809;51.864;5.646;2022-12-07T04:53:43;3.00;99.90
42141;DHT22;27809;51.864;5.646;2022-12-07T04:56:09;3.00;99.90
42141;DHT22;27809;51.864;5.646;2022-12-07T04:58:34;3.10;99.90
42141;DHT22;27809;51.864;5.646;2022-12-07T05:01:00;3.10;99.90
42141;DHT22;27809;51.864;5.646;2022-12-07T05:03:25;3.20;99.90
42141;DHT22;27809;51.864;5.646;2022-12-07T05:05:51;3.30;99.90
42141;DHT22;27809;51.864;5.646;2022-12-07T05:08:16;3.10;99.90
42141;DHT22;27809;51.864;5.646;2022-12-07T05:10:42;3.10;99.90
42141;DHT22;27809;51.864;5.646;2022-12-07T05:13:07;3.10;99.90
42141;DHT22;27809;51.864;5.646;2022-12-07T05:15:33;3.10;99.90
42141;DHT22;27809;51.864;5.646;2022-12-07T05:17:59;3.10;99.90
42141;DHT22;27809;51.864;5.646;2022-12-07T05:20:24;3.00;99.90
42141;DHT22;27809;51.864;5.646;2022-12-07T05:22:50;2.80;99.90
42141;DHT22;27809;51.864;5.646;2022-12-07T05:25:15;2.90;99.90
42141;DHT22;27809;51.864;5.646;2022-12-07T05:27:41;3.00;99.90
42141;DHT22;27809;51.864;5.646;2022-12-07T05:30:07;3.00;99.90
42141;DHT22;27809;51.864;5.646;2022-12-07T05:32:32;2.90;99.90
42141;DHT22;27809;51.864;5.646;2022-12-07T05:34:58;2.70;99.90
42141;DHT22;27809;51.864;5.646;2022-12-07T05:37:24;2.70;99.90
42141;DHT22;27809;51.864;5.646;2022-12-07T05:39:49;3.00;99.90
42141;DHT22;27809;51.864;5.646;2022-12-07T05:42:15;3.00;99.90
42141;DHT22;27809;51.864;5.646;2022-12-07T05:44:42;2.90;99.90
42141;DHT22;27809;51.864;5.646;2022-12-07T05:47:08;3.00;99.90
42141;DHT22;27809;51.864;5.646;2022-12-07T05:49:34;3.00;99.90
42141;DHT22;27809;51.864;5.646;2022-12-07T05:51:59;3.10;99.90
42141;DHT22;27809;51.864;5.646;2022-12-07T05:54:25;3.10;99.90
42141;DHT22;27809;51.864;5.646;2022-12-07T05:56:51;3.20;99.90
42141;DHT22;27809;51.864;5.646;2022-12-07T05:59:16;3.20;99.90
42141;DHT22;27809;51.864;5.646;2022-12-07T06:01:58;5.00;99.90
42141;DHT22;27809;51.864;5.646;2022-12-07T06:04:26;3.60;99.90
42141;DHT22;27809;51.864;5.646;2022-12-07T06:06:53;3.10;99.90
42141;DHT22;27809;51.864;5.646;2022-12-07T06:09:20;3.10;99.90
42141;DHT22;27809;51.864;5.646;2022-12-07T06:11:46;2.90;99.90
42141;DHT22;27809;51.864;5.646;2022-12-07T06:14:30;2.80;99.90
42141;DHT22;27809;51.864;5.646;2022-12-07T06:16:56;2.80;99.90
42141;DHT22;27809;51.864;5.646;2022-12-07T06:19:22;2.80;99.90
42141;DHT22;27809;51.864;5.646;2022-12-07T06:21:47;2.70;99.90
42141;DHT22;27809;51.864;5.646;2022-12-07T06:24:14;2.80;99.90
42141;DHT22;27809;51.864;5.646;2022-12-07T06:26:41;2.80;99.90
42141;DHT22;27809;51.864;5.646;2022-12-07T06:29:09;2.90;99.90
42141;DHT22;27809;51.864;5.646;2022-12-07T06:31:35;2.70;99.90
42141;DHT22;27809;51.864;5.646;2022-12-07T06:34:03;2.70;99.90
42141;DHT22;27809;51.864;5.646;2022-12-07T06:36:29;2.50;99.90
42141;DHT22;27809;51.864;5.646;2022-12-07T06:38:55;2.60;99.90
42141;DHT22;27809;51.864;5.646;2022-12-07T06:41:21;2.60;99.90
42141;DHT22;27809;51.864;5.646;2022-12-07T06:43:47;2.60;99.90
42141;DHT22;27809;51.864;5.646;2022-12-07T06:46:14;2.60;99.90
42141;DHT22;27809;51.864;5.646;2022-12-07T06:48:40;2.50;99.90
42141;DHT22;27809;51.864;5.646;2022-12-07T06:51:05;2.60;99.90
42141;DHT22;27809;51.864;5.646;2022-12-07T06:53:31;2.60;99.90
42141;DHT22;27809;51.864;5.646;2022-12-07T06:55:56;2.60;99.90
42141;DHT22;27809;51.864;5.646;2022-12-07T06:58:22;2.40;99.90
42141;DHT22;27809;51.864;5.646;2022-12-07T07:00:48;2.20;99.90
42141;DHT22;27809;51.864;5.646;2022-12-07T07:03:15;2.30;99.90
42141;DHT22;27809;51.864;5.646;2022-12-07T07:05:42;2.20;99.90
42141;DHT22;27809;51.864;5.646;2022-12-07T07:08:07;2.20;99.90
42141;DHT22;27809;51.864;5.646;2022-12-07T07:10:33;2.20;99.90
42141;DHT22;27809;51.864;5.646;2022-12-07T07:12:59;2.10;99.90
42141;DHT22;27809;51.864;5.646;2022-12-07T07:15:24;2.00;99.90
42141;DHT22;27809;51.864;5.646;2022-12-07T07:17:50;2.10;99.90
42141;DHT22;27809;51.864;5.646;2022-12-07T07:20:16;2.30;99.90
42141;DHT22;27809;51.864;5.646;2022-12-07T07:22:41;2.20;99.90
42141;DHT22;27809;51.864;5.646;2022-12-07T07:25:07;2.10;99.90
42141;DHT22;27809;51.864;5.646;2022-12-07T07:27:33;2.10;99.90
42141;DHT22;27809;51.864;5.646;2022-12-07T07:29:58;2.10;99.90
42141;DHT22;27809;51.864;5.646;2022-12-07T07:32:24;2.20;99.90
42141;DHT22;27809;51.864;5.646;2022-12-07T07:34:49;2.30;99.90
42141;DHT22;27809;51.864;5.646;2022-12-07T07:37:15;2.30;99.90
42141;DHT22;27809;51.864;5.646;2022-12-07T07:39:40;2.30;99.90
42141;DHT22;27809;51.864;5.646;2022-12-07T07:42:06;2.40;99.90
42141;DHT22;27809;51.864;5.646;2022-12-07T07:44:33;2.40;99.90
42141;DHT22;27809;51.864;5.646;2022-12-07T07:46:59;2.40;99.90
42141;DHT22;27809;51.864;5.646;2022-12-07T07:49:24;2.20;99.90
42141;DHT22;27809;51.864;5.646;2022-12-07T07:51:50;2.20;99.90
42141;DHT22;27809;51.864;5.646;2022-12-07T07:54:15;2.30;99.90
42141;DHT22;27809;51.864;5.646;2022-12-07T07:56:41;2.30;99.90
42141;DHT22;27809;51.864;5.646;2022-12-07T07:59:06;2.30;99.90
42141;DHT22;27809;51.864;5.646;2022-12-07T08:01:32;2.30;99.90
42141;DHT22;27809;51.864;5.646;2022-12-07T08:03:58;2.40;99.90
42141;DHT22;27809;51.864;5.646;2022-12-07T08:06:23;2.30;99.90
42141;DHT22;27809;51.864;5.646;2022-12-07T08:08:49;2.50;99.90
42141;DHT22;27809;51.864;5.646;2022-12-07T08:11:14;2.50;99.90
42141;DHT22;27809;51.864;5.646;2022-12-07T08:13:40;2.50;99.90
42141;DHT22;27809;51.864;5.646;2022-12-07T08:16:09;2.80;99.90
42141;DHT22;27809;51.864;5.646;2022-12-07T08:18:36;2.70;99.90
42141;DHT22;27809;51.864;5.646;2022-12-07T08:21:03;2.50;99.90
42141;DHT22;27809;51.864;5.646;2022-12-07T08:23:30;2.50;99.90
42141;DHT22;27809;51.864;5.646;2022-12-07T08:26:00;2.40;99.90
42141;DHT22;27809;51.864;5.646;2022-12-07T08:28:26;2.40;99.90
42141;DHT22;27809;51.864;5.646;2022-12-07T08:30:52;2.40;99.90
42141;DHT22;27809;51.864;5.646;2022-12-07T08:33:17;2.30;99.90
42141;DHT22;27809;51.864;5.646;2022-12-07T08:35:43;2.20;99.90
42141;DHT22;27809;51.864;5.646;2022-12-07T08:38:09;2.20;99.90
42141;DHT22;27809;51.864;5.646;2022-12-07T08:40:34;2.30;99.90
42141;DHT22;27809;51.864;5.646;2022-12-07T08:43:00;2.50;99.90
42141;DHT22;27809;51.864;5.646;2022-12-07T08:45:26;2.80;99.90
42141;DHT22;27809;51.864;5.646;2022-12-07T08:48:11;2.90;99.90
42141;DHT22;27809;51.864;5.646;2022-12-07T08:50:39;2.90;99.90
42141;DHT22;27809;51.864;5.646;2022-12-07T08:53:05;2.90;99.90
42141;DHT22;27809;51.864;5.646;2022-12-07T08:55:31;2.90;99.90
42141;DHT22;27809;51.864;5.646;2022-12-07T08:57:59;3.00;99.90
42141;DHT22;27809;51.864;5.646;2022-12-07T09:00:26;3.10;99.90
42141;DHT22;27809;51.864;5.646;2022-12-07T09:02:51;3.20;99.90
42141;DHT22;27809;51.864;5.646;2022-12-07T09:05:17;3.30;99.90
42141;DHT22;27809;51.864;5.646;2022-12-07T09:07:49;3.20;99.90
42141;DHT22;27809;51.864;5.646;2022-12-07T09:10:15;3.30;99.90
42141;DHT22;27809;51.864;5.646;2022-12-07T09:12:41;3.40;99.90
42141;DHT22;27809;51.864;5.646;2022-12-07T09:15:07;3.40;99.90
42141;DHT22;27809;51.864;5.646;2022-12-07T09:17:34;3.60;99.90
42141;DHT22;27809;51.864;5.646;2022-12-07T09:20:00;3.80;99.90
42141;DHT22;27809;51.864;5.646;2022-12-07T09:22:29;4.00;99.90
42141;DHT22;27809;51.864;5.646;2022-12-07T09:24:56;3.90;99.90
42141;DHT22;27809;51.864;5.646;2022-12-07T09:27:21;4.00;99.90
42141;DHT22;27809;51.864;5.646;2022-12-07T09:29:47;4.00;99.90
42141;DHT22;27809;51.864;5.646;2022-12-07T09:32:12;4.10;99.90
42141;DHT22;27809;51.864;5.646;2022-12-07T09:34:38;4.30;99.90
42141;DHT22;27809;51.864;5.646;2022-12-07T09:37:03;4.20;99.90
42141;DHT22;27809;51.864;5.646;2022-12-07T09:39:29;4.40;99.90
42141;DHT22;27809;51.864;5.646;2022-12-07T09:41:56;4.40;99.90
42141;DHT22;27809;51.864;5.646;2022-12-07T09:44:25;4.40;99.90
42141;DHT22;27809;51.864;5.646;2022-12-07T09:46:52;4.40;99.90
42141;DHT22;27809;51.864;5.646;2022-12-07T09:49:21;10.20;99.90
42141;DHT22;27809;51.864;5.646;2022-12-07T09:51:58;11.90;60.20
42141;DHT22;27809;51.864;5.646;2022-12-07T09:54:24;7.10;94.60
42141;DHT22;27809;51.864;5.646;2022-12-07T09:56:49;5.60;99.90
42141;DHT22;27809;51.864;5.646;2022-12-07T09:59:18;5.30;99.90
42141;DHT22;27809;51.864;5.646;2022-12-07T10:01:49;5.30;99.90
42141;DHT22;27809;51.864;5.646;2022-12-07T10:06:44;5.30;99.90
42141;DHT22;27809;51.864;5.646;2022-12-07T10:09:19;5.20;99.90
42141;DHT22;27809;51.864;5.646;2022-12-07T10:12:08;5.20;99.90
42141;DHT22;27809;51.864;5.646;2022-12-07T10:14:36;5.30;99.90
42141;DHT22;27809;51.864;5.646;2022-12-07T10:17:05;5.40;99.90
42141;DHT22;27809;51.864;5.646;2022-12-07T10:19:48;5.40;99.90
42141;DHT22;27809;51.864;5.646;2022-12-07T10:22:16;5.60;99.90
42141;DHT22;27809;51.864;5.646;2022-12-07T10:24:43;5.70;99.90
42141;DHT22;27809;51.864;5.646;2022-12-07T10:27:37;5.60;99.90
42141;DHT22;27809;51.864;5.646;2022-12-07T10:30:07;5.80;99.90
42141;DHT22;27809;51.864;5.646;2022-12-07T10:32:34;5.90;99.90
42141;DHT22;27809;51.864;5.646;2022-12-07T10:37:48;9.30;94.00
42141;DHT22;27809;51.864;5.646;2022-12-07T10:40:25;7.50;99.90
42141;DHT22;27809;51.864;5.646;2022-12-07T10:59:35;6.50;99.90
42141;DHT22;27809;51.864;5.646;2022-12-07T11:08:05;6.30;99.90
42141;DHT22;27809;51.864;5.646;2022-12-07T11:16:05;6.30;99.90
42141;DHT22;27809;51.864;5.646;2022-12-07T11:18:57;6.40;99.90
42141;DHT22;27809;51.864;5.646;2022-12-07T11:24:25;6.90;99.90
42141;DHT22;27809;51.864;5.646;2022-12-07T11:29:50;6.50;99.90
42141;DHT22;27809;51.864;5.646;2022-12-07T11:35:11;16.90;65.50
42141;DHT22;27809;51.864;5.646;2022-12-07T11:37:40;16.90;70.50
42141;DHT22;27809;51.864;5.646;2022-12-07T11:40:20;10.90;66.80
42141;DHT22;27809;51.864;5.646;2022-12-07T11:42:54;8.30;95.80
42141;DHT22;27809;51.864;5.646;2022-12-07T11:47:47;7.40;99.90
42141;DHT22;27809;51.864;5.646;2022-12-07T11:50:40;7.20;99.90
42141;DHT22;27809;51.864;5.646;2022-12-07T11:56:09;7.30;99.90
42141;DHT22;27809;51.864;5.646;2022-12-07T11:58:49;7.00;99.90
42141;DHT22;27809;51.864;5.646;2022-12-07T12:01:48;6.90;99.90
42141;DHT22;27809;51.864;5.646;2022-12-07T12:07:17;7.20;99.90
42141;DHT22;27809;51.864;5.646;2022-12-07T12:09:49;6.90;99.90
42141;DHT22;27809;51.864;5.646;2022-12-07T12:12:45;6.70;99.90
42141;DHT22;27809;51.864;5.646;2022-12-07T12:18:39;9.70;81.20
42141;DHT22;27809;51.864;5.646;2022-12-07T12:21:16;7.40;99.90
42141;DHT22;27809;51.864;5.646;2022-12-07T12:23:46;7.00;99.90
42141;DHT22;27809;51.864;5.646;2022-12-07T12:26:20;11.70;97.30
42141;DHT22;27809;51.864;5.646;2022-12-07T12:28:50;8.00;96.00
42141;DHT22;27809;51.864;5.646;2022-12-07T12:33:49;6.60;99.90
42141;DHT22;27809;51.864;5.646;2022-12-07T12:38:50;6.30;99.90
42141;DHT22;27809;51.864;5.646;2022-12-07T12:46:53;6.10;99.90
42141;DHT22;27809;51.864;5.646;2022-12-07T12:54:24;6.80;99.90
42141;DHT22;27809;51.864;5.646;2022-12-07T12:59:57;6.00;99.90
42141;DHT22;27809;51.864;5.646;2022-12-07T13:15:44;5.20;99.90
42141;DHT22;27809;51.864;5.646;2022-12-07T13:20:57;5.10;99.90
42141;DHT22;27809;51.864;5.646;2022-12-07T13:23:30;4.90;99.90
42141;DHT22;27809;51.864;5.646;2022-12-07T13:31:20;5.10;99.90
42141;DHT22;27809;51.864;5.646;2022-12-07T13:33:48;5.10;99.90
42141;DHT22;27809;51.864;5.646;2022-12-07T13:36:25;5.00;99.90
42141;DHT22;27809;51.864;5.646;2022-12-07T13:38:57;5.00;99.90
42141;DHT22;27809;51.864;5.646;2022-12-07T13:41:28;4.90;99.90
42141;DHT22;27809;51.864;5.646;2022-12-07T13:46:47;4.80;99.90
42141;DHT22;27809;51.864;5.646;2022-12-07T13:49:20;4.90;99.90
42141;DHT22;27809;51.864;5.646;2022-12-07T13:51:47;4.80;99.90
42141;DHT22;27809;51.864;5.646;2022-12-07T13:54:13;4.50;99.90
42141;DHT22;27809;51.864;5.646;2022-12-07T13:56:40;4.40;99.90
42141;DHT22;27809;51.864;5.646;2022-12-07T13:59:20;4.40;99.90
42141;DHT22;27809;51.864;5.646;2022-12-07T14:01:47;4.50;99.90
42141;DHT22;27809;51.864;5.646;2022-12-07T14:04:37;4.30;99.90
42141;DHT22;27809;51.864;5.646;2022-12-07T14:07:26;4.20;99.90
42141;DHT22;27809;51.864;5.646;2022-12-07T14:12:25;4.30;99.90
42141;DHT22;27809;51.864;5.646;2022-12-07T14:14:51;4.30;99.90
42141;DHT22;27809;51.864;5.646;2022-12-07T14:17:19;4.40;99.90
42141;DHT22;27809;51.864;5.646;2022-12-07T14:19:53;4.30;99.90
42141;DHT22;27809;51.864;5.646;2022-12-07T14:22:36;4.60;99.90
42141;DHT22;27809;51.864;5.646;2022-12-07T14:25:22;4.60;99.90
42141;DHT22;27809;51.864;5.646;2022-12-07T14:27:59;4.70;99.90
42141;DHT22;27809;51.864;5.646;2022-12-07T14:30:31;5.20;99.90
42141;DHT22;27809;51.864;5.646;2022-12-07T14:32:59;4.80;99.90
42141;DHT22;27809;51.864;5.646;2022-12-07T14:35:26;5.90;99.90
42141;DHT22;27809;51.864;5.646;2022-12-07T14:37:52;5.10;99.90
42141;DHT22;27809;51.864;5.646;2022-12-07T14:40:23;7.10;99.90
42141;DHT22;27809;51.864;5.646;2022-12-07T14:42:57;7.70;99.90
42141;DHT22;27809;51.864;5.646;2022-12-07T14:45:25;13.10;99.90
42141;DHT22;27809;51.864;5.646;2022-12-07T14:47:50;8.80;89.40
42141;DHT22;27809;51.864;5.646;2022-12-07T14:50:18;6.30;99.90
42141;DHT22;27809;51.864;5.646;2022-12-07T14:52:51;6.30;99.90
42141;DHT22;27809;51.864;5.646;2022-12-07T14:55:30;5.70;99.90
42141;DHT22;27809;51.864;5.646;2022-12-07T14:57:57;6.80;99.90
42141;DHT22;27809;51.864;5.646;2022-12-07T15:00:25;5.70;99.90
42141;DHT22;27809;51.864;5.646;2022-12-07T15:02:51;5.20;99.90
42141;DHT22;27809;51.864;5.646;2022-12-07T15:05:17;5.10;99.90
42141;DHT22;27809;51.864;5.646;2022-12-07T15:07:44;4.90;99.90
42141;DHT22;27809;51.864;5.646;2022-12-07T15:10:18;5.00;99.90
42141;DHT22;27809;51.864;5.646;2022-12-07T15:12:44;5.00;99.90
42141;DHT22;27809;51.864;5.646;2022-12-07T15:15:10;5.00;99.90
42141;DHT22;27809;51.864;5.646;2022-12-07T15:17:35;4.90;99.90
42141;DHT22;27809;51.864;5.646;2022-12-07T15:20:01;4.90;99.90
42141;DHT22;27809;51.864;5.646;2022-12-07T15:22:26;4.90;99.90
42141;DHT22;27809;51.864;5.646;2022-12-07T15:24:52;4.90;99.90
42141;DHT22;27809;51.864;5.646;2022-12-07T15:27:17;4.80;99.90
42141;DHT22;27809;51.864;5.646;2022-12-07T15:29:43;4.90;99.90
42141;DHT22;27809;51.864;5.646;2022-12-07T15:32:09;4.80;99.90
42141;DHT22;27809;51.864;5.646;2022-12-07T15:34:34;4.70;99.90
42141;DHT22;27809;51.864;5.646;2022-12-07T15:36:59;5.80;99.90
42141;DHT22;27809;51.864;5.646;2022-12-07T15:39:25;4.90;99.90
42141;DHT22;27809;51.864;5.646;2022-12-07T15:41:51;4.60;99.90
42141;DHT22;27809;51.864;5.646;2022-12-07T15:44:16;4.30;99.90
42141;DHT22;27809;51.864;5.646;2022-12-07T15:47:00;4.20;99.90
42141;DHT22;27809;51.864;5.646;2022-12-07T15:49:27;4.40;99.90
42141;DHT22;27809;51.864;5.646;2022-12-07T15:51:52;4.20;99.90
42141;DHT22;27809;51.864;5.646;2022-12-07T15:54:24;4.00;99.90
42141;DHT22;27809;51.864;5.646;2022-12-07T15:56:50;3.90;99.90
42141;DHT22;27809;51.864;5.646;2022-12-07T15:59:16;3.90;99.90
42141;DHT22;27809;51.864;5.646;2022-12-07T16:01:42;3.90;99.90
42141;DHT22;27809;51.864;5.646;2022-12-07T16:04:08;3.70;99.90
42141;DHT22;27809;51.864;5.646;2022-12-07T16:06:33;3.60;99.90
42141;DHT22;27809;51.864;5.646;2022-12-07T16:08:59;3.50;99.90
42141;DHT22;27809;51.864;5.646;2022-12-07T16:11:24;3.50;99.90
42141;DHT22;27809;51.864;5.646;2022-12-07T16:13:50;3.50;99.90
42141;DHT22;27809;51.864;5.646;2022-12-07T16:16:17;3.50;99.90
42141;DHT22;27809;51.864;5.646;2022-12-07T16:18:44;3.60;99.90
42141;DHT22;27809;51.864;5.646;2022-12-07T16:21:10;3.40;99.90
42141;DHT22;27809;51.864;5.646;2022-12-07T16:23:36;3.50;99.90
42141;DHT22;27809;51.864;5.646;2022-12-07T16:26:10;3.30;99.90
42141;DHT22;27809;51.864;5.646;2022-12-07T16:28:36;3.30;99.90
42141;DHT22;27809;51.864;5.646;2022-12-07T16:31:07;3.30;99.90
42141;DHT22;27809;51.864;5.646;2022-12-07T16:33:37;4.40;99.90
42141;DHT22;27809;51.864;5.646;2022-12-07T16:36:04;7.70;97.30
42141;DHT22;27809;51.864;5.646;2022-12-07T16:38:30;4.90;99.90
42141;DHT22;27809;51.864;5.646;2022-12-07T16:40:56;3.80;99.90
42141;DHT22;27809;51.864;5.646;2022-12-07T16:43:21;3.70;99.90
42141;DHT22;27809;51.864;5.646;2022-12-07T16:45:47;3.60;99.90
42141;DHT22;27809;51.864;5.646;2022-12-07T16:48:14;3.40;99.90
42141;DHT22;27809;51.864;5.646;2022-12-07T16:50:40;3.20;99.90
42141;DHT22;27809;51.864;5.646;2022-12-07T16:53:07;3.20;99.90
42141;DHT22;27809;51.864;5.646;2022-12-07T16:55:43;3.10;99.90
42141;DHT22;27809;51.864;5.646;2022-12-07T16:58:11;3.10;99.90
42141;DHT22;27809;51.864;5.646;2022-12-07T17:00:37;3.20;99.90
42141;DHT22;27809;51.864;5.646;2022-12-07T17:03:03;3.10;99.90
42141;DHT22;27809;51.864;5.646;2022-12-07T17:05:29;3.20;99.90
42141;DHT22;27809;51.864;5.646;2022-12-07T17:07:55;3.10;99.90
42141;DHT22;27809;51.864;5.646;2022-12-07T17:10:22;3.20;99.90
42141;DHT22;27809;51.864;5.646;2022-12-07T17:12:48;3.30;99.90
42141;DHT22;27809;51.864;5.646;2022-12-07T17:15:13;3.20;99.90
42141;DHT22;27809;51.864;5.646;2022-12-07T17:17:44;3.10;99.90
42141;DHT22;27809;51.864;5.646;2022-12-07T17:20:10;3.20;99.90
42141;DHT22;27809;51.864;5.646;2022-12-07T17:22:35;3.30;99.90
42141;DHT22;27809;51.864;5.646;2022-12-07T17:25:01;3.50;99.90
42141;DHT22;27809;51.864;5.646;2022-12-07T17:27:27;3.40;99.90
42141;DHT22;27809;51.864;5.646;2022-12-07T17:29:52;3.20;99.90
42141;DHT22;27809;51.864;5.646;2022-12-07T17:32:18;3.40;99.90
42141;DHT22;27809;51.864;5.646;2022-12-07T17:34:44;3.30;99.90
42141;DHT22;27809;51.864;5.646;2022-12-07T17:37:09;3.40;99.90
42141;DHT22;27809;51.864;5.646;2022-12-07T17:39:35;3.60;99.90
42141;DHT22;27809;51.864;5.646;2022-12-07T17:42:00;3.60;99.90
42141;DHT22;27809;51.864;5.646;2022-12-07T17:44:44;3.50;99.90
42141;DHT22;27809;51.864;5.646;2022-12-07T17:47:10;3.50;99.90
42141;DHT22;27809;51.864;5.646;2022-12-07T17:49:36;3.60;99.90
42141;DHT22;27809;51.864;5.646;2022-12-07T17:52:01;3.60;99.90
42141;DHT22;27809;51.864;5.646;2022-12-07T17:54:45;3.40;99.90
42141;DHT22;27809;51.864;5.646;2022-12-07T17:57:11;3.30;99.90
42141;DHT22;27809;51.864;5.646;2022-12-07T17:59:37;3.40;99.90
42141;DHT22;27809;51.864;5.646;2022-12-07T18:02:02;3.40;99.90
42141;DHT22;27809;51.864;5.646;2022-12-07T18:04:28;3.40;99.90